createdAt,value
2022-09-15T00:02:18.269Z,3.60
2022-09-15T00:04:45.786Z,3.30
2022-09-15T00:07:13.033Z,2.80
2022-09-15T00:09:40.316Z,3.30
2022-09-15T00:12:07.774Z,3.20
2022-09-15T00:14:35.030Z,3.10
2022-09-15T00:17:02.211Z,3.30
2022-09-15T00:19:29.614Z,2.80
2022-09-15T00:22:00.447Z,3.10
2022-09-15T00:24:27.851Z,3.40
2022-09-15T00:26:55.173Z,3.10
2022-09-15T00:29:22.332Z,3.00
2022-09-15T00:31:49.401Z,2.50
2022-09-15T00:34:16.637Z,2.90
2022-09-15T00:36:43.901Z,2.70
2022-09-15T00:39:11.073Z,2.90
2022-09-15T00:41:40.645Z,2.60
2022-09-15T00:44:36.457Z,2.90
2022-09-15T00:47:21.555Z,3.20
2022-09-15T00:49:58.381Z,2.90
2022-09-15T00:52:29.760Z,2.80
2022-09-15T00:55:07.572Z,2.60
2022-09-15T00:57:40.509Z,2.60
2022-09-15T01:00:12.664Z,2.60
2022-09-15T01:02:43.911Z,2.70
2022-09-15T01:05:20.747Z,2.90
2022-09-15T01:08:19.839Z,3.20
2022-09-15T01:10:57.895Z,3.00
2022-09-15T01:13:34.717Z,2.50
2022-09-15T01:16:53.444Z,2.70
2022-09-15T01:20:10.156Z,2.60
2022-09-15T01:23:13.176Z,3.00
2022-09-15T01:25:52.602Z,2.70
2022-09-15T01:28:33.803Z,2.80
2022-09-15T01:31:34.093Z,2.80
2022-09-15T01:34:18.454Z,2.70
2022-09-15T01:37:04.537Z,2.70
2022-09-15T01:40:03.006Z,2.60
2022-09-15T01:42:32.663Z,3.00
2022-09-15T01:45:07.540Z,2.50
2022-09-15T01:47:37.029Z,2.50
2022-09-15T01:50:22.748Z,2.90
2022-09-15T01:52:54.086Z,2.50
2022-09-15T01:55:31.999Z,2.70
2022-09-15T01:57:59.933Z,2.40
2022-09-15T02:00:27.168Z,2.40
2022-09-15T02:03:04.494Z,2.70
2022-09-15T02:05:45.497Z,2.60
2022-09-15T02:08:38.809Z,2.60
2022-09-15T02:11:26.847Z,2.50
2022-09-15T02:14:11.640Z,2.40
2022-09-15T02:16:42.619Z,2.50
2022-09-15T02:19:31.449Z,2.30
2022-09-15T02:22:30.378Z,2.50
2022-09-15T02:25:06.412Z,2.60
2022-09-15T02:27:40.844Z,2.70
2022-09-15T02:30:18.549Z,2.70
2022-09-15T02:33:08.544Z,2.80
2022-09-15T02:35:37.436Z,2.60
2022-09-15T02:38:07.838Z,2.90
2022-09-15T02:40:36.514Z,2.70
2022-09-15T02:43:05.708Z,2.70
2022-09-15T02:45:33.181Z,2.20
2022-09-15T02:48:00.475Z,2.60
2022-09-15T02:50:27.821Z,2.40
2022-09-15T02:53:11.566Z,2.80
2022-09-15T02:55:42.218Z,3.30
2022-09-15T02:58:09.438Z,2.80
2022-09-15T03:00:39.229Z,2.30
2022-09-15T03:03:06.564Z,2.50
2022-09-15T03:05:33.665Z,2.40
2022-09-15T03:08:00.968Z,2.70
2022-09-15T03:10:28.417Z,2.70
2022-09-15T03:12:55.827Z,2.80
2022-09-15T03:15:30.292Z,2.60
2022-09-15T03:18:02.258Z,2.90
2022-09-15T03:20:30.688Z,2.70
2022-09-15T03:22:57.963Z,2.70
2022-09-15T03:25:27.156Z,2.80
2022-09-15T03:27:54.298Z,3.00
2022-09-15T03:30:21.248Z,2.90
2022-09-15T03:32:48.935Z,3.40
2022-09-15T03:35:16.040Z,2.60
2022-09-15T03:37:43.174Z,2.70
2022-09-15T03:40:10.923Z,3.00
2022-09-15T03:42:38.017Z,3.00
2022-09-15T03:45:05.314Z,2.70
2022-09-15T03:47:33.557Z,2.50
2022-09-15T03:50:00.651Z,3.10
2022-09-15T03:52:32.132Z,2.80
2022-09-15T03:54:59.396Z,2.80
2022-09-15T03:57:26.481Z,2.70
2022-09-15T03:59:53.602Z,3.00
2022-09-15T04:02:21.188Z,2.70
2022-09-15T04:04:49.693Z,2.70
2022-09-15T04:07:16.801Z,3.00
2022-09-15T04:09:46.465Z,2.90
2022-09-15T04:12:13.558Z,2.50
2022-09-15T04:14:42.747Z,2.60
2022-09-15T04:17:11.020Z,3.00
2022-09-15T04:19:38.228Z,2.60
2022-09-15T04:22:05.536Z,2.80
2022-09-15T04:24:35.885Z,2.80
2022-09-15T04:27:02.891Z,2.70
2022-09-15T04:29:30.022Z,3.10
2022-09-15T04:31:57.091Z,3.20
2022-09-15T04:34:24.769Z,2.70
2022-09-15T04:36:51.838Z,2.70
2022-09-15T04:39:19.847Z,3.20
2022-09-15T04:41:46.836Z,2.90
2022-09-15T04:44:13.905Z,3.00
2022-09-15T04:46:40.915Z,2.80
2022-09-15T04:49:08.197Z,3.40
2022-09-15T04:51:35.730Z,2.60
2022-09-15T04:54:02.694Z,3.10
2022-09-15T04:56:29.754Z,3.10
2022-09-15T04:59:04.286Z,3.00
2022-09-15T05:01:35.812Z,3.30
2022-09-15T05:04:06.602Z,2.90
2022-09-15T05:06:35.172Z,3.70
2022-09-15T05:09:07.661Z,3.20
2022-09-15T05:11:36.956Z,3.80
2022-09-15T05:14:04.042Z,4.10
2022-09-15T05:16:32.160Z,4.20
2022-09-15T05:19:03.258Z,3.60
2022-09-15T05:21:31.331Z,3.70
2022-09-15T05:24:06.190Z,4.10
2022-09-15T05:26:35.696Z,3.60
2022-09-15T05:29:02.845Z,3.60
2022-09-15T05:31:33.924Z,3.70
2022-09-15T05:34:04.064Z,3.40
2022-09-15T05:36:31.629Z,3.40
2022-09-15T05:39:01.091Z,3.80
2022-09-15T05:41:38.807Z,4.00
2022-09-15T05:44:07.690Z,3.60
2022-09-15T05:46:37.254Z,3.90
2022-09-15T05:49:04.547Z,3.20
2022-09-15T05:51:58.662Z,3.50
2022-09-15T05:54:33.991Z,3.60
2022-09-15T05:57:06.717Z,3.50
2022-09-15T05:59:48.150Z,3.60
2022-09-15T06:02:23.693Z,3.50
2022-09-15T06:04:52.136Z,3.40
2022-09-15T06:07:36.199Z,3.80
2022-09-15T06:10:06.222Z,3.90
2022-09-15T06:12:33.404Z,3.40
2022-09-15T06:15:00.448Z,3.90
2022-09-15T06:17:27.612Z,3.50
2022-09-15T06:20:17.160Z,3.50
2022-09-15T06:22:56.896Z,3.00
2022-09-15T06:25:24.140Z,3.30
2022-09-15T06:27:51.205Z,3.80
2022-09-15T06:30:19.099Z,3.10
2022-09-15T06:32:48.502Z,2.80
2022-09-15T06:35:16.124Z,3.00
2022-09-15T06:37:43.163Z,3.10
2022-09-15T06:40:10.694Z,2.70
2022-09-15T06:42:37.817Z,2.60
2022-09-15T06:45:05.181Z,2.80
2022-09-15T06:47:34.237Z,2.40
2022-09-15T06:50:01.905Z,2.80
2022-09-15T06:52:28.928Z,2.50
2022-09-15T06:54:55.961Z,2.40
2022-09-15T06:57:25.209Z,2.40
2022-09-15T06:59:52.255Z,2.40
2022-09-15T07:02:19.319Z,2.80
2022-09-15T07:04:46.437Z,2.60
2022-09-15T07:07:14.486Z,2.40
2022-09-15T07:09:42.810Z,2.80
2022-09-15T07:12:11.355Z,2.60
2022-09-15T07:14:38.565Z,2.30
2022-09-15T07:17:05.568Z,2.40
2022-09-15T07:19:32.557Z,2.50
2022-09-15T07:21:59.583Z,2.30
2022-09-15T07:24:26.699Z,2.40
2022-09-15T07:26:53.750Z,2.20
2022-09-15T07:29:20.959Z,2.40
2022-09-15T07:31:48.096Z,2.20
2022-09-15T07:34:18.319Z,2.50
2022-09-15T07:36:45.510Z,2.20
2022-09-15T07:39:12.466Z,2.50
2022-09-15T07:41:39.537Z,2.40
2022-09-15T07:44:08.631Z,2.60
2022-09-15T07:46:35.670Z,2.50
2022-09-15T07:49:09.986Z,2.60
2022-09-15T07:51:37.165Z,2.70
2022-09-15T07:54:10.257Z,2.80
2022-09-15T07:56:44.630Z,2.70
2022-09-15T07:59:14.199Z,3.00
2022-09-15T08:02:19.390Z,2.80
2022-09-15T08:04:55.037Z,2.30
2022-09-15T08:07:37.888Z,3.00
2022-09-15T08:10:21.801Z,2.60
2022-09-15T08:13:09.151Z,2.40
2022-09-15T08:16:05.443Z,2.70
2022-09-15T08:19:05.797Z,2.70
2022-09-15T08:21:36.279Z,2.50
2022-09-15T08:24:06.574Z,2.90
2022-09-15T08:26:33.594Z,3.30
2022-09-15T08:29:01.700Z,2.80
2022-09-15T08:31:29.147Z,2.80
2022-09-15T08:34:09.771Z,2.90
2022-09-15T08:36:36.937Z,2.40
2022-09-15T08:39:10.680Z,2.70
2022-09-15T08:41:45.738Z,3.00
2022-09-15T08:44:46.924Z,3.30
2022-09-15T08:47:31.211Z,2.70
2022-09-15T08:50:27.608Z,2.50
2022-09-15T08:53:09.841Z,2.30
2022-09-15T08:55:57.091Z,2.40
2022-09-15T08:58:38.113Z,2.10
2022-09-15T09:01:11.125Z,2.30
2022-09-15T09:04:07.676Z,2.40
2022-09-15T09:07:00.105Z,2.10
2022-09-15T09:09:40.978Z,2.10
2022-09-15T09:12:45.246Z,2.10
2022-09-15T09:15:33.696Z,2.70
2022-09-15T09:18:10.391Z,2.00
2022-09-15T09:20:43.420Z,1.90
2022-09-15T09:23:15.971Z,2.00
2022-09-15T09:25:46.964Z,1.90
2022-09-15T09:28:39.772Z,2.20
2022-09-15T09:31:21.463Z,2.10
2022-09-15T09:34:05.945Z,2.00
2022-09-15T09:36:34.187Z,1.80
2022-09-15T09:39:02.589Z,2.30
2022-09-15T09:41:38.736Z,2.10
2022-09-15T09:44:13.231Z,1.80
2022-09-15T09:46:41.463Z,1.90
2022-09-15T09:49:18.918Z,2.30
2022-09-15T09:51:57.487Z,1.90
2022-09-15T09:54:28.920Z,2.20
2022-09-15T10:00:03.829Z,2.10
2022-09-15T10:02:47.258Z,1.80
2022-09-15T10:05:20.223Z,2.00
2022-09-15T10:07:47.681Z,1.80
2022-09-15T10:10:32.657Z,2.00
2022-09-15T10:13:05.557Z,1.90
2022-09-15T10:15:38.537Z,1.90
2022-09-15T10:18:08.368Z,1.90
2022-09-15T10:20:51.612Z,1.80
2022-09-15T10:23:18.445Z,2.90
2022-09-15T10:26:01.366Z,2.10
2022-09-15T10:28:29.059Z,2.10
2022-09-15T10:30:58.763Z,2.50
2022-09-15T10:33:27.307Z,2.40
2022-09-15T10:36:04.268Z,2.10
2022-09-15T10:38:39.188Z,2.40
2022-09-15T10:41:18.375Z,2.10
2022-09-15T10:44:02.159Z,2.40
2022-09-15T10:46:59.493Z,2.00
2022-09-15T10:49:48.174Z,2.20
2022-09-15T10:52:45.835Z,2.20
2022-09-15T10:55:48.850Z,1.90
2022-09-15T10:58:32.481Z,2.60
2022-09-15T11:01:29.241Z,2.30
2022-09-15T11:04:26.052Z,2.10
2022-09-15T11:07:12.134Z,2.20
2022-09-15T11:09:45.911Z,2.00
2022-09-15T11:12:50.280Z,2.80
2022-09-15T11:15:32.449Z,2.10
2022-09-15T11:18:13.306Z,2.30
2022-09-15T11:21:21.919Z,2.20
2022-09-15T11:23:54.095Z,2.20
2022-09-15T11:26:44.371Z,2.30
2022-09-15T11:29:24.695Z,2.30
2022-09-15T11:32:04.817Z,2.30
2022-09-15T11:34:51.410Z,2.10
2022-09-15T11:37:25.318Z,2.30
2022-09-15T11:39:59.601Z,2.20
2022-09-15T11:42:39.440Z,2.00
2022-09-15T11:45:20.109Z,2.30
2022-09-15T11:48:08.663Z,2.10
2022-09-15T11:50:41.786Z,2.00
2022-09-15T11:53:17.413Z,2.30
2022-09-15T11:55:54.321Z,2.20
2022-09-15T11:58:43.167Z,2.10
2022-09-15T12:01:27.349Z,2.20
2022-09-15T12:04:02.539Z,1.80
2022-09-15T12:06:35.972Z,2.20
2022-09-15T12:09:06.276Z,2.10
2022-09-15T12:11:38.485Z,2.50
2022-09-15T12:14:08.527Z,2.10
2022-09-15T12:16:35.930Z,2.10
2022-09-15T12:22:10.429Z,2.30
2022-09-15T12:25:17.881Z,2.10
2022-09-15T12:28:05.374Z,2.30
2022-09-15T12:30:41.368Z,1.90
2022-09-15T12:33:42.380Z,2.30
2022-09-15T12:36:46.056Z,2.00
2022-09-15T12:39:30.358Z,1.80
2022-09-15T12:42:00.524Z,2.30
2022-09-15T12:44:56.033Z,2.10
2022-09-15T12:47:49.404Z,2.10
2022-09-15T12:50:20.305Z,2.00
2022-09-15T12:53:01.810Z,2.10
2022-09-15T12:55:53.623Z,2.00
2022-09-15T12:58:42.220Z,2.30
2022-09-15T13:01:20.938Z,2.20
2022-09-15T13:04:08.617Z,2.20
2022-09-15T13:06:36.127Z,2.00
2022-09-15T13:09:06.009Z,2.10
2022-09-15T13:11:37.889Z,2.10
2022-09-15T13:14:07.706Z,2.00
2022-09-15T13:16:41.463Z,2.10
2022-09-15T13:19:33.909Z,2.10
2022-09-15T13:22:06.757Z,1.90
2022-09-15T13:24:50.718Z,2.10
2022-09-15T13:27:23.633Z,2.10
2022-09-15T13:30:04.095Z,2.00
2022-09-15T13:32:52.833Z,2.60
2022-09-15T13:35:58.670Z,2.10
2022-09-15T13:38:54.953Z,2.20
2022-09-15T13:41:27.889Z,2.10
2022-09-15T13:44:23.541Z,2.40
2022-09-15T13:47:27.888Z,2.30
2022-09-15T13:50:07.238Z,2.30
2022-09-15T13:53:05.619Z,2.60
2022-09-15T13:55:38.738Z,2.10
2022-09-15T14:01:07.040Z,2.40
2022-09-15T14:03:46.096Z,2.20
2022-09-15T14:06:34.279Z,2.40
2022-09-15T14:09:09.420Z,2.50
2022-09-15T14:11:38.083Z,2.40
2022-09-15T14:14:21.272Z,2.20
2022-09-15T14:16:52.432Z,2.90
2022-09-15T14:19:33.696Z,2.50
2022-09-15T14:22:27.930Z,2.50
2022-09-15T14:24:57.655Z,2.30
2022-09-15T14:27:35.987Z,2.70
2022-09-15T14:30:06.722Z,2.30
2022-09-15T14:32:46.548Z,2.60
2022-09-15T14:35:19.851Z,2.30
2022-09-15T14:37:50.326Z,2.50
2022-09-15T14:40:28.440Z,2.40
2022-09-15T14:42:56.247Z,2.50
2022-09-15T14:48:28.378Z,2.60
2022-09-15T14:51:03.005Z,2.20
2022-09-15T14:53:35.125Z,2.50
2022-09-15T14:56:14.448Z,2.70
2022-09-15T14:58:48.382Z,2.20
2022-09-15T15:01:50.286Z,2.60
2022-09-15T15:04:39.421Z,2.40
2022-09-15T15:07:22.951Z,2.40
2022-09-15T15:09:56.760Z,2.40
2022-09-15T15:12:54.220Z,2.20
2022-09-15T15:15:21.759Z,2.50
2022-09-15T15:17:51.857Z,2.60
2022-09-15T15:20:49.081Z,2.30
2022-09-15T15:23:23.791Z,2.80
2022-09-15T15:29:43.566Z,2.70
2022-09-15T15:32:12.679Z,2.70
2022-09-15T15:34:40.319Z,2.50
2022-09-15T15:37:39.800Z,3.20
2022-09-15T15:40:17.517Z,3.00
2022-09-15T15:43:05.068Z,2.30
2022-09-15T15:45:34.800Z,2.50
2022-09-15T15:48:04.482Z,2.40
2022-09-15T15:50:34.865Z,2.70
2022-09-15T15:53:02.966Z,2.40
2022-09-15T15:55:43.390Z,2.40
2022-09-15T15:58:15.296Z,2.90
2022-09-15T16:00:44.419Z,2.70
2022-09-15T16:03:12.695Z,2.70
2022-09-15T16:05:43.950Z,2.30
2022-09-15T16:08:18.832Z,2.50
2022-09-15T16:10:49.636Z,2.60
2022-09-15T16:13:22.200Z,2.60
2022-09-15T16:15:49.974Z,2.70
2022-09-15T16:18:17.090Z,2.60
2022-09-15T16:20:44.340Z,2.80
2022-09-15T16:23:17.710Z,2.60
2022-09-15T16:26:06.024Z,2.80
2022-09-15T16:28:33.375Z,2.80
2022-09-15T16:31:00.486Z,2.60
2022-09-15T16:33:27.513Z,3.00
2022-09-15T16:36:03.902Z,2.80
2022-09-15T16:38:33.200Z,3.20
2022-09-15T16:44:35.490Z,3.20
2022-09-15T16:47:03.056Z,3.40
2022-09-15T16:49:30.351Z,2.40
2022-09-15T16:51:57.423Z,3.10
2022-09-15T16:54:24.362Z,3.10
2022-09-15T16:56:53.622Z,3.10
2022-09-15T16:59:20.799Z,2.80
2022-09-15T17:02:04.266Z,3.00
2022-09-15T17:04:38.975Z,3.30
2022-09-15T17:07:33.509Z,3.00
2022-09-15T17:10:03.832Z,3.00
2022-09-15T17:12:30.875Z,2.70
2022-09-15T17:14:57.894Z,3.30
2022-09-15T17:17:25.874Z,3.10
2022-09-15T17:19:53.047Z,3.00
2022-09-15T17:22:23.035Z,2.60
2022-09-15T17:25:00.373Z,2.90
2022-09-15T17:27:27.494Z,3.10
2022-09-15T17:29:54.649Z,3.00
2022-09-15T17:32:21.605Z,2.90
2022-09-15T17:34:48.710Z,2.90
2022-09-15T17:37:18.631Z,3.40
2022-09-15T17:39:46.554Z,3.60
2022-09-15T17:42:13.479Z,3.30
2022-09-15T17:44:40.606Z,3.50
2022-09-15T17:47:07.528Z,3.20
2022-09-15T17:49:39.297Z,2.80
2022-09-15T17:52:14.675Z,3.30
2022-09-15T17:54:41.859Z,3.80
2022-09-15T17:57:08.927Z,3.20
2022-09-15T17:59:36.218Z,3.30
2022-09-15T18:02:04.598Z,3.00
2022-09-15T18:04:34.616Z,3.30
2022-09-15T18:07:01.678Z,3.20
2022-09-15T18:09:28.715Z,3.40
2022-09-15T18:11:55.730Z,3.60
2022-09-15T18:14:22.682Z,3.40
2022-09-15T18:17:17.359Z,3.50
2022-09-15T18:23:34.429Z,3.30
2022-09-15T18:26:27.103Z,3.50
2022-09-15T18:28:55.459Z,3.30
2022-09-15T18:31:23.948Z,3.50
2022-09-15T18:33:52.769Z,3.30
2022-09-15T18:36:19.846Z,3.50
2022-09-15T18:38:46.976Z,3.30
2022-09-15T18:41:14.135Z,3.00
2022-09-15T18:43:41.377Z,3.40
2022-09-15T18:46:08.564Z,3.20
2022-09-15T18:48:35.707Z,3.20
2022-09-15T18:51:08.553Z,3.30
2022-09-15T18:53:38.760Z,3.10
2022-09-15T18:56:14.636Z,3.50
2022-09-15T18:58:44.792Z,3.10
2022-09-15T19:01:21.593Z,3.00
2022-09-15T19:03:49.551Z,3.20
2022-09-15T19:06:16.746Z,3.30
2022-09-15T19:08:43.987Z,3.00
2022-09-15T19:11:11.109Z,3.20
2022-09-15T19:13:38.541Z,3.20
2022-09-15T19:16:09.725Z,2.90
2022-09-15T19:18:37.215Z,3.40
2022-09-15T19:21:09.757Z,3.30
2022-09-15T19:23:53.193Z,3.00
2022-09-15T19:26:26.009Z,3.10
2022-09-15T19:28:53.015Z,2.80
2022-09-15T19:31:20.197Z,2.90
2022-09-15T19:33:47.250Z,3.10
2022-09-15T19:36:28.107Z,3.40
2022-09-15T19:38:56.497Z,3.00
2022-09-15T19:41:23.977Z,3.10
2022-09-15T19:43:51.235Z,3.20
2022-09-15T19:46:24.293Z,3.00
2022-09-15T19:48:53.093Z,3.30
2022-09-15T19:51:21.043Z,2.90
2022-09-15T19:53:58.176Z,3.20
2022-09-15T19:56:40.095Z,2.60
2022-09-15T19:59:20.516Z,3.00
2022-09-15T20:01:48.483Z,3.10
2022-09-15T20:04:16.063Z,2.80
2022-09-15T20:09:26.900Z,3.00
2022-09-15T20:11:54.285Z,3.20
2022-09-15T20:14:48.495Z,3.00
2022-09-15T20:17:15.806Z,2.80
2022-09-15T20:19:43.191Z,3.00
2022-09-15T20:22:10.481Z,3.10
2022-09-15T20:24:37.679Z,3.30
2022-09-15T20:27:05.083Z,3.20
2022-09-15T20:29:32.318Z,3.00
2022-09-15T20:31:59.493Z,3.00
2022-09-15T20:34:26.691Z,2.70
2022-09-15T20:36:56.496Z,2.70
2022-09-15T20:39:23.924Z,2.80
2022-09-15T20:41:54.938Z,2.70
2022-09-15T20:44:22.158Z,2.90
2022-09-15T20:46:49.312Z,3.00
2022-09-15T20:49:16.557Z,3.30
2022-09-15T20:51:43.851Z,2.80
2022-09-15T20:54:11.602Z,2.90
2022-09-15T20:56:38.684Z,2.70
2022-09-15T20:59:09.353Z,3.10
2022-09-15T21:01:39.185Z,3.00
2022-09-15T21:04:10.318Z,2.80
2022-09-15T21:06:38.483Z,2.90
2022-09-15T21:09:06.149Z,2.40
2022-09-15T21:11:34.119Z,2.30
2022-09-15T21:14:01.710Z,2.90
2022-09-15T21:16:29.567Z,2.80
2022-09-15T21:19:02.657Z,2.90
2022-09-15T21:21:38.510Z,2.60
2022-09-15T21:24:12.226Z,2.90
2022-09-15T21:46:15.236Z,2.90
2022-09-15T21:48:44.953Z,2.50
2022-09-15T21:51:14.641Z,2.60
2022-09-15T21:53:42.770Z,2.50
2022-09-15T21:56:12.261Z,2.80
2022-09-15T21:58:42.921Z,2.40
2022-09-15T22:01:19.215Z,2.60
2022-09-15T22:03:52.091Z,2.70
2022-09-15T22:06:21.653Z,2.80
2022-09-15T22:08:49.346Z,3.00
2022-09-15T22:11:16.450Z,2.50
2022-09-15T22:13:44.967Z,2.60
2022-09-15T22:16:17.054Z,2.40
2022-09-15T22:18:45.351Z,2.30
2022-09-15T22:21:24.324Z,2.30
2022-09-15T22:23:54.149Z,2.40
2022-09-15T22:26:25.665Z,2.50
2022-09-15T22:28:53.227Z,2.70
2022-09-15T22:31:21.942Z,2.50
2022-09-15T22:33:49.363Z,2.80
2022-09-15T22:36:19.030Z,2.30
2022-09-15T22:38:46.852Z,2.20
2022-09-15T22:41:18.969Z,2.60
2022-09-15T22:43:51.734Z,2.40
2022-09-15T22:46:20.167Z,2.80
2022-09-15T22:48:47.944Z,3.10
2022-09-15T22:51:15.656Z,2.80
2022-09-15T22:53:43.050Z,2.90
2022-09-15T22:56:20.326Z,2.70
2022-09-15T22:58:49.635Z,2.10
2022-09-15T23:01:24.433Z,2.80
2022-09-15T23:04:02.484Z,2.40
2022-09-15T23:06:32.382Z,2.90
2022-09-15T23:09:02.814Z,2.60
2022-09-15T23:11:32.622Z,2.40
2022-09-15T23:14:00.697Z,2.60
2022-09-15T23:16:28.582Z,2.70
2022-09-15T23:18:55.822Z,2.80
2022-09-15T23:21:25.510Z,2.20
2022-09-15T23:23:54.640Z,2.20
2022-09-15T23:26:25.794Z,2.50
2022-09-15T23:28:53.464Z,2.10
2022-09-15T23:31:20.996Z,2.40
2022-09-15T23:33:50.984Z,2.60
2022-09-15T23:36:22.524Z,2.60
2022-09-15T23:38:50.263Z,2.20
2022-09-15T23:41:17.909Z,2.40
2022-09-15T23:43:45.908Z,2.50
2022-09-15T23:46:13.719Z,2.30
2022-09-15T23:48:40.947Z,2.50
2022-09-15T23:51:09.085Z,2.40
2022-09-15T23:53:36.634Z,2.40
2022-09-15T23:56:04.391Z,2.80
2022-09-15T23:58:31.563Z,2.30
